sensor_id;sensor_type;location;lat;lon;timestamp;temperature;humidity
18101;DHT22;9177;49.156;8.142;2023-06-14T00:01:40;25.60;85.60
18101;DHT22;9177;49.156;8.142;2023-06-14T00:04:11;25.60;85.60
18101;DHT22;9177;49.156;8.142;2023-06-14T00:06:38;25.60;85.70
18101;DHT22;9177;49.156;8.142;2023-06-14T00:09:07;25.60;85.70
18101;DHT22;9177;49.156;8.142;2023-06-14T00:11:36;25.60;85.70
18101;DHT22;9177;49.156;8.142;2023-06-14T00:14:03;25.60;85.80
18101;DHT22;9177;49.156;8.142;2023-06-14T00:16:30;25.50;85.70
18101;DHT22;9177;49.156;8.142;2023-06-14T00:18:58;25.50;85.80
18101;DHT22;9177;49.156;8.142;2023-06-14T00:21:25;25.50;85.80
18101;DHT22;9177;49.156;8.142;2023-06-14T00:23:55;25.60;85.90
18101;DHT22;9177;49.156;8.142;2023-06-14T00:26:22;25.60;85.90
18101;DHT22;9177;49.156;8.142;2023-06-14T00:28:50;25.50;85.90
18101;DHT22;9177;49.156;8.142;2023-06-14T00:31:18;25.50;86.00
18101;DHT22;9177;49.156;8.142;2023-06-14T00:33:46;25.50;86.00
18101;DHT22;9177;49.156;8.142;2023-06-14T00:36:13;25.60;86.00
18101;DHT22;9177;49.156;8.142;2023-06-14T00:38:40;25.50;86.00
18101;DHT22;9177;49.156;8.142;2023-06-14T00:41:07;25.50;86.00
18101;DHT22;9177;49.156;8.142;2023-06-14T00:43:34;25.50;86.10
18101;DHT22;9177;49.156;8.142;2023-06-14T00:46:02;25.50;86.10
18101;DHT22;9177;49.156;8.142;2023-06-14T00:48:30;25.50;86.20
18101;DHT22;9177;49.156;8.142;2023-06-14T00:50:58;25.50;86.20
18101;DHT22;9177;49.156;8.142;2023-06-14T00:53:28;25.50;86.20
18101;DHT22;9177;49.156;8.142;2023-06-14T00:55:58;25.50;86.20
18101;DHT22;9177;49.156;8.142;2023-06-14T00:58:26;25.50;86.30
18101;DHT22;9177;49.156;8.142;2023-06-14T01:00:54;25.50;86.30
18101;DHT22;9177;49.156;8.142;2023-06-14T01:03:23;25.50;86.40
18101;DHT22;9177;49.156;8.142;2023-06-14T01:05:56;25.50;86.40
18101;DHT22;9177;49.156;8.142;2023-06-14T01:08:35;25.50;86.50
18101;DHT22;9177;49.156;8.142;2023-06-14T01:11:12;25.50;86.40
18101;DHT22;9177;49.156;8.142;2023-06-14T01:13:45;25.50;86.50
18101;DHT22;9177;49.156;8.142;2023-06-14T01:16:14;25.40;86.40
18101;DHT22;9177;49.156;8.142;2023-06-14T01:18:44;25.50;86.50
18101;DHT22;9177;49.156;8.142;2023-06-14T01:21:20;25.50;86.50
18101;DHT22;9177;49.156;8.142;2023-06-14T01:23:49;25.40;86.50
18101;DHT22;9177;49.156;8.142;2023-06-14T01:26:19;25.50;86.60
18101;DHT22;9177;49.156;8.142;2023-06-14T01:28:47;25.50;86.70
18101;DHT22;9177;49.156;8.142;2023-06-14T01:31:17;25.40;86.60
18101;DHT22;9177;49.156;8.142;2023-06-14T01:33:45;25.50;86.70
18101;DHT22;9177;49.156;8.142;2023-06-14T01:36:12;25.40;86.60
18101;DHT22;9177;49.156;8.142;2023-06-14T01:38:41;25.40;86.60
18101;DHT22;9177;49.156;8.142;2023-06-14T01:41:10;25.40;86.70
18101;DHT22;9177;49.156;8.142;2023-06-14T01:43:39;25.40;86.70
18101;DHT22;9177;49.156;8.142;2023-06-14T01:46:06;25.40;86.70
18101;DHT22;9177;49.156;8.142;2023-06-14T01:48:35;25.40;86.80
18101;DHT22;9177;49.156;8.142;2023-06-14T01:51:02;25.40;86.80
18101;DHT22;9177;49.156;8.142;2023-06-14T01:53:29;25.40;86.80
18101;DHT22;9177;49.156;8.142;2023-06-14T01:55:56;25.40;86.80
18101;DHT22;9177;49.156;8.142;2023-06-14T01:58:25;25.40;86.90
18101;DHT22;9177;49.156;8.142;2023-06-14T02:00:52;25.40;86.90
18101;DHT22;9177;49.156;8.142;2023-06-14T02:03:20;25.40;86.90
18101;DHT22;9177;49.156;8.142;2023-06-14T02:05:48;25.40;87.00
18101;DHT22;9177;49.156;8.142;2023-06-14T02:08:15;25.40;87.00
18101;DHT22;9177;49.156;8.142;2023-06-14T02:10:42;25.40;87.00
18101;DHT22;9177;49.156;8.142;2023-06-14T02:13:10;25.40;87.00
18101;DHT22;9177;49.156;8.142;2023-06-14T02:15:38;25.40;87.00
18101;DHT22;9177;49.156;8.142;2023-06-14T02:18:05;25.40;87.10
18101;DHT22;9177;49.156;8.142;2023-06-14T02:20:33;25.40;87.10
18101;DHT22;9177;49.156;8.142;2023-06-14T02:23:01;25.40;87.10
18101;DHT22;9177;49.156;8.142;2023-06-14T02:25:28;25.40;87.20
18101;DHT22;9177;49.156;8.142;2023-06-14T02:27:55;25.40;87.20
18101;DHT22;9177;49.156;8.142;2023-06-14T02:30:22;25.40;87.20
18101;DHT22;9177;49.156;8.142;2023-06-14T02:32:51;25.40;87.30
18101;DHT22;9177;49.156;8.142;2023-06-14T02:35:22;25.40;87.30
18101;DHT22;9177;49.156;8.142;2023-06-14T02:37:52;25.40;87.30
18101;DHT22;9177;49.156;8.142;2023-06-14T02:40:19;25.40;87.30
18101;DHT22;9177;49.156;8.142;2023-06-14T02:42:46;25.40;87.30
18101;DHT22;9177;49.156;8.142;2023-06-14T02:45:16;25.40;87.40
18101;DHT22;9177;49.156;8.142;2023-06-14T02:47:43;25.40;87.40
18101;DHT22;9177;49.156;8.142;2023-06-14T02:50:12;25.40;87.40
18101;DHT22;9177;49.156;8.142;2023-06-14T02:52:40;25.40;87.50
18101;DHT22;9177;49.156;8.142;2023-06-14T02:55:08;25.40;87.40
18101;DHT22;9177;49.156;8.142;2023-06-14T02:57:35;25.40;87.50
18101;DHT22;9177;49.156;8.142;2023-06-14T03:00:02;25.40;87.50
18101;DHT22;9177;49.156;8.142;2023-06-14T03:02:29;25.40;88.30
18101;DHT22;9177;49.156;8.142;2023-06-14T03:04:56;25.40;87.50
18101;DHT22;9177;49.156;8.142;2023-06-14T03:07:28;25.40;87.50
18101;DHT22;9177;49.156;8.142;2023-06-14T03:09:55;25.40;87.50
18101;DHT22;9177;49.156;8.142;2023-06-14T03:12:22;25.40;87.50
18101;DHT22;9177;49.156;8.142;2023-06-14T03:14:49;25.40;87.50
18101;DHT22;9177;49.156;8.142;2023-06-14T03:17:17;25.30;87.40
18101;DHT22;9177;49.156;8.142;2023-06-14T03:19:45;25.40;87.60
18101;DHT22;9177;49.156;8.142;2023-06-14T03:22:12;25.30;87.50
18101;DHT22;9177;49.156;8.142;2023-06-14T03:24:40;25.30;87.50
18101;DHT22;9177;49.156;8.142;2023-06-14T03:27:08;25.30;87.60
18101;DHT22;9177;49.156;8.142;2023-06-14T03:29:35;25.30;87.60
18101;DHT22;9177;49.156;8.142;2023-06-14T03:32:03;25.30;87.60
18101;DHT22;9177;49.156;8.142;2023-06-14T03:34:30;25.30;87.60
18101;DHT22;9177;49.156;8.142;2023-06-14T03:36:57;25.30;87.60
18101;DHT22;9177;49.156;8.142;2023-06-14T03:39:24;25.30;87.60
18101;DHT22;9177;49.156;8.142;2023-06-14T03:41:53;25.40;87.80
18101;DHT22;9177;49.156;8.142;2023-06-14T03:44:21;25.30;87.70
18101;DHT22;9177;49.156;8.142;2023-06-14T03:46:48;25.30;87.70
18101;DHT22;9177;49.156;8.142;2023-06-14T03:49:15;25.30;87.70
18101;DHT22;9177;49.156;8.142;2023-06-14T03:51:42;25.30;87.70
18101;DHT22;9177;49.156;8.142;2023-06-14T03:54:09;25.30;87.70
18101;DHT22;9177;49.156;8.142;2023-06-14T03:56:36;25.30;87.70
18101;DHT22;9177;49.156;8.142;2023-06-14T03:59:04;25.30;87.70
18101;DHT22;9177;49.156;8.142;2023-06-14T04:01:31;25.30;87.80
18101;DHT22;9177;49.156;8.142;2023-06-14T04:03:59;25.30;87.80
18101;DHT22;9177;49.156;8.142;2023-06-14T04:06:26;25.30;87.80
18101;DHT22;9177;49.156;8.142;2023-06-14T04:08:58;25.30;87.80
18101;DHT22;9177;49.156;8.142;2023-06-14T04:11:29;25.30;87.90
18101;DHT22;9177;49.156;8.142;2023-06-14T04:13:56;25.30;87.90
18101;DHT22;9177;49.156;8.142;2023-06-14T04:16:24;25.30;87.90
18101;DHT22;9177;49.156;8.142;2023-06-14T04:18:51;25.30;87.80
18101;DHT22;9177;49.156;8.142;2023-06-14T04:21:19;25.30;87.90
18101;DHT22;9177;49.156;8.142;2023-06-14T04:23:46;25.30;87.90
18101;DHT22;9177;49.156;8.142;2023-06-14T04:26:13;25.30;87.90
18101;DHT22;9177;49.156;8.142;2023-06-14T04:28:41;25.30;87.90
18101;DHT22;9177;49.156;8.142;2023-06-14T04:31:10;25.30;87.90
18101;DHT22;9177;49.156;8.142;2023-06-14T04:33:38;25.30;87.90
18101;DHT22;9177;49.156;8.142;2023-06-14T04:36:09;25.30;87.90
18101;DHT22;9177;49.156;8.142;2023-06-14T04:38:37;25.30;87.90
18101;DHT22;9177;49.156;8.142;2023-06-14T04:41:04;25.30;87.90
18101;DHT22;9177;49.156;8.142;2023-06-14T04:43:31;25.30;87.90
18101;DHT22;9177;49.156;8.142;2023-06-14T04:46:03;25.30;87.90
18101;DHT22;9177;49.156;8.142;2023-06-14T04:48:31;25.30;88.00
18101;DHT22;9177;49.156;8.142;2023-06-14T04:50:59;25.30;88.00
18101;DHT22;9177;49.156;8.142;2023-06-14T04:53:26;25.30;88.00
18101;DHT22;9177;49.156;8.142;2023-06-14T04:55:54;25.30;88.00
18101;DHT22;9177;49.156;8.142;2023-06-14T04:58:21;25.30;88.10
18101;DHT22;9177;49.156;8.142;2023-06-14T05:00:48;25.30;88.10
18101;DHT22;9177;49.156;8.142;2023-06-14T05:03:15;25.30;88.10
18101;DHT22;9177;49.156;8.142;2023-06-14T05:05:43;25.30;88.10
18101;DHT22;9177;49.156;8.142;2023-06-14T05:08:12;25.30;88.10
18101;DHT22;9177;49.156;8.142;2023-06-14T05:10:39;25.30;88.10
18101;DHT22;9177;49.156;8.142;2023-06-14T05:13:06;25.30;88.10
18101;DHT22;9177;49.156;8.142;2023-06-14T05:15:33;25.30;88.10
18101;DHT22;9177;49.156;8.142;2023-06-14T05:18:00;25.30;88.10
18101;DHT22;9177;49.156;8.142;2023-06-14T05:20:28;25.30;88.20
18101;DHT22;9177;49.156;8.142;2023-06-14T05:22:55;25.30;88.20
18101;DHT22;9177;49.156;8.142;2023-06-14T05:25:24;25.30;88.20
18101;DHT22;9177;49.156;8.142;2023-06-14T05:27:51;25.30;88.20
18101;DHT22;9177;49.156;8.142;2023-06-14T05:30:18;25.30;88.20
18101;DHT22;9177;49.156;8.142;2023-06-14T05:32:45;25.30;88.20
18101;DHT22;9177;49.156;8.142;2023-06-14T05:35:11;25.30;88.20
18101;DHT22;9177;49.156;8.142;2023-06-14T05:37:38;25.30;88.20
18101;DHT22;9177;49.156;8.142;2023-06-14T05:40:07;25.30;88.20
18101;DHT22;9177;49.156;8.142;2023-06-14T05:42:35;25.30;88.20
18101;DHT22;9177;49.156;8.142;2023-06-14T05:45:03;25.30;88.20
18101;DHT22;9177;49.156;8.142;2023-06-14T05:47:30;25.30;88.20
18101;DHT22;9177;49.156;8.142;2023-06-14T05:49:57;25.30;88.20
18101;DHT22;9177;49.156;8.142;2023-06-14T05:52:24;25.30;88.20
18101;DHT22;9177;49.156;8.142;2023-06-14T05:54:51;25.30;88.20
18101;DHT22;9177;49.156;8.142;2023-06-14T05:57:18;25.30;88.20
18101;DHT22;9177;49.156;8.142;2023-06-14T05:59:47;25.30;88.20
18101;DHT22;9177;49.156;8.142;2023-06-14T06:02:14;25.30;88.20
18101;DHT22;9177;49.156;8.142;2023-06-14T06:04:40;25.30;88.20
18101;DHT22;9177;49.156;8.142;2023-06-14T06:07:07;25.30;88.20
18101;DHT22;9177;49.156;8.142;2023-06-14T06:09:35;25.30;88.20
18101;DHT22;9177;49.156;8.142;2023-06-14T06:12:02;25.30;88.20
18101;DHT22;9177;49.156;8.142;2023-06-14T06:14:29;25.30;88.20
18101;DHT22;9177;49.156;8.142;2023-06-14T06:16:57;25.30;88.20
18101;DHT22;9177;49.156;8.142;2023-06-14T06:19:24;25.30;88.20
18101;DHT22;9177;49.156;8.142;2023-06-14T06:21:51;25.30;88.20
18101;DHT22;9177;49.156;8.142;2023-06-14T06:24:18;25.30;88.20
18101;DHT22;9177;49.156;8.142;2023-06-14T06:26:45;25.30;88.20
18101;DHT22;9177;49.156;8.142;2023-06-14T06:29:12;25.30;88.10
18101;DHT22;9177;49.156;8.142;2023-06-14T06:31:39;25.30;88.20
18101;DHT22;9177;49.156;8.142;2023-06-14T06:34:08;25.30;88.30
18101;DHT22;9177;49.156;8.142;2023-06-14T06:36:35;25.30;88.20
18101;DHT22;9177;49.156;8.142;2023-06-14T06:39:02;25.30;88.20
18101;DHT22;9177;49.156;8.142;2023-06-14T06:41:34;25.30;88.30
18101;DHT22;9177;49.156;8.142;2023-06-14T06:44:03;25.40;88.30
18101;DHT22;9177;49.156;8.142;2023-06-14T06:46:30;25.30;88.30
18101;DHT22;9177;49.156;8.142;2023-06-14T06:48:56;25.30;88.30
18101;DHT22;9177;49.156;8.142;2023-06-14T06:51:25;25.30;88.40
18101;DHT22;9177;49.156;8.142;2023-06-14T06:53:52;25.30;88.40
18101;DHT22;9177;49.156;8.142;2023-06-14T06:56:20;25.30;88.40
18101;DHT22;9177;49.156;8.142;2023-06-14T06:58:48;25.40;88.50
18101;DHT22;9177;49.156;8.142;2023-06-14T07:01:15;25.40;89.20
18101;DHT22;9177;49.156;8.142;2023-06-14T07:03:43;25.40;88.40
18101;DHT22;9177;49.156;8.142;2023-06-14T07:06:10;25.40;88.60
18101;DHT22;9177;49.156;8.142;2023-06-14T07:08:41;25.40;88.40
18101;DHT22;9177;49.156;8.142;2023-06-14T07:11:08;25.40;88.50
18101;DHT22;9177;49.156;8.142;2023-06-14T07:13:35;25.40;88.60
18101;DHT22;9177;49.156;8.142;2023-06-14T07:16:04;25.40;88.50
18101;DHT22;9177;49.156;8.142;2023-06-14T07:18:31;25.40;88.60
18101;DHT22;9177;49.156;8.142;2023-06-14T07:20:58;25.40;88.70
18101;DHT22;9177;49.156;8.142;2023-06-14T07:23:27;25.40;88.70
18101;DHT22;9177;49.156;8.142;2023-06-14T07:25:55;25.40;88.70
18101;DHT22;9177;49.156;8.142;2023-06-14T07:28:22;25.40;88.70
18101;DHT22;9177;49.156;8.142;2023-06-14T07:30:49;25.40;88.80
18101;DHT22;9177;49.156;8.142;2023-06-14T07:33:16;25.50;88.90
18101;DHT22;9177;49.156;8.142;2023-06-14T07:35:43;25.50;88.90
18101;DHT22;9177;49.156;8.142;2023-06-14T07:38:11;25.50;89.00
18101;DHT22;9177;49.156;8.142;2023-06-14T07:40:38;25.50;89.00
18101;DHT22;9177;49.156;8.142;2023-06-14T07:43:06;25.50;88.90
18101;DHT22;9177;49.156;8.142;2023-06-14T07:45:34;25.60;88.90
18101;DHT22;9177;49.156;8.142;2023-06-14T07:48:01;25.60;88.80
18101;DHT22;9177;49.156;8.142;2023-06-14T07:50:29;25.60;88.80
18101;DHT22;9177;49.156;8.142;2023-06-14T07:52:56;25.60;88.80
18101;DHT22;9177;49.156;8.142;2023-06-14T07:55:23;25.60;88.70
18101;DHT22;9177;49.156;8.142;2023-06-14T07:57:51;25.70;88.80
18101;DHT22;9177;49.156;8.142;2023-06-14T08:00:20;25.70;88.80
18101;DHT22;9177;49.156;8.142;2023-06-14T08:02:47;25.70;88.80
18101;DHT22;9177;49.156;8.142;2023-06-14T08:05:15;25.70;88.80
18101;DHT22;9177;49.156;8.142;2023-06-14T08:07:42;25.70;88.70
18101;DHT22;9177;49.156;8.142;2023-06-14T08:10:09;25.70;88.70
18101;DHT22;9177;49.156;8.142;2023-06-14T08:12:37;25.70;88.70
18101;DHT22;9177;49.156;8.142;2023-06-14T08:15:05;25.70;88.70
18101;DHT22;9177;49.156;8.142;2023-06-14T08:17:34;25.70;88.70
18101;DHT22;9177;49.156;8.142;2023-06-14T08:20:02;25.70;88.70
18101;DHT22;9177;49.156;8.142;2023-06-14T08:22:30;25.70;88.80
18101;DHT22;9177;49.156;8.142;2023-06-14T08:24:59;25.80;88.90
18101;DHT22;9177;49.156;8.142;2023-06-14T08:27:27;25.70;88.80
18101;DHT22;9177;49.156;8.142;2023-06-14T08:29:54;25.80;88.90
18101;DHT22;9177;49.156;8.142;2023-06-14T08:32:24;25.70;88.80
18101;DHT22;9177;49.156;8.142;2023-06-14T08:34:53;25.80;88.90
18101;DHT22;9177;49.156;8.142;2023-06-14T08:37:23;25.80;89.00
18101;DHT22;9177;49.156;8.142;2023-06-14T08:39:52;25.80;89.00
18101;DHT22;9177;49.156;8.142;2023-06-14T08:42:21;25.80;89.00
18101;DHT22;9177;49.156;8.142;2023-06-14T08:44:48;25.80;88.90
18101;DHT22;9177;49.156;8.142;2023-06-14T08:47:16;25.80;89.00
18101;DHT22;9177;49.156;8.142;2023-06-14T08:49:46;25.80;89.00
18101;DHT22;9177;49.156;8.142;2023-06-14T08:52:16;25.80;89.00
18101;DHT22;9177;49.156;8.142;2023-06-14T08:54:46;25.80;89.00
18101;DHT22;9177;49.156;8.142;2023-06-14T08:57:14;25.80;89.00
18101;DHT22;9177;49.156;8.142;2023-06-14T08:59:47;25.80;89.00
18101;DHT22;9177;49.156;8.142;2023-06-14T09:02:18;25.80;89.00
18101;DHT22;9177;49.156;8.142;2023-06-14T09:04:48;25.90;89.10
18101;DHT22;9177;49.156;8.142;2023-06-14T09:07:17;25.90;89.20
18101;DHT22;9177;49.156;8.142;2023-06-14T09:09:44;25.90;89.20
18101;DHT22;9177;49.156;8.142;2023-06-14T09:12:12;25.90;89.20
18101;DHT22;9177;49.156;8.142;2023-06-14T09:14:39;25.90;89.20
18101;DHT22;9177;49.156;8.142;2023-06-14T09:17:08;25.90;89.20
18101;DHT22;9177;49.156;8.142;2023-06-14T09:19:35;25.90;89.30
18101;DHT22;9177;49.156;8.142;2023-06-14T09:22:03;25.90;89.30
18101;DHT22;9177;49.156;8.142;2023-06-14T09:24:32;25.90;89.30
18101;DHT22;9177;49.156;8.142;2023-06-14T09:26:59;25.90;89.30
18101;DHT22;9177;49.156;8.142;2023-06-14T09:29:26;25.90;89.30
18101;DHT22;9177;49.156;8.142;2023-06-14T09:31:53;25.90;89.30
18101;DHT22;9177;49.156;8.142;2023-06-14T09:34:22;26.00;89.40
18101;DHT22;9177;49.156;8.142;2023-06-14T09:36:50;25.90;89.30
18101;DHT22;9177;49.156;8.142;2023-06-14T09:39:17;26.00;89.40
18101;DHT22;9177;49.156;8.142;2023-06-14T09:41:46;25.90;89.30
18101;DHT22;9177;49.156;8.142;2023-06-14T09:44:13;26.00;89.40
18101;DHT22;9177;49.156;8.142;2023-06-14T09:46:40;26.00;89.50
18101;DHT22;9177;49.156;8.142;2023-06-14T09:49:08;26.00;89.40
18101;DHT22;9177;49.156;8.142;2023-06-14T09:51:40;26.00;89.50
18101;DHT22;9177;49.156;8.142;2023-06-14T09:54:19;26.00;89.50
18101;DHT22;9177;49.156;8.142;2023-06-14T09:56:48;26.00;89.50
18101;DHT22;9177;49.156;8.142;2023-06-14T09:59:20;26.00;89.50
18101;DHT22;9177;49.156;8.142;2023-06-14T10:01:55;26.00;89.50
18101;DHT22;9177;49.156;8.142;2023-06-14T10:04:23;26.00;89.70
18101;DHT22;9177;49.156;8.142;2023-06-14T10:06:54;26.00;89.90
18101;DHT22;9177;49.156;8.142;2023-06-14T10:09:21;26.00;89.90
18101;DHT22;9177;49.156;8.142;2023-06-14T10:11:50;26.00;89.80
18101;DHT22;9177;49.156;8.142;2023-06-14T10:14:18;26.00;89.90
18101;DHT22;9177;49.156;8.142;2023-06-14T10:16:49;26.00;89.80
18101;DHT22;9177;49.156;8.142;2023-06-14T10:19:25;26.00;89.90
18101;DHT22;9177;49.156;8.142;2023-06-14T10:22:02;26.00;89.90
18101;DHT22;9177;49.156;8.142;2023-06-14T10:24:35;26.00;89.90
18101;DHT22;9177;49.156;8.142;2023-06-14T10:27:07;26.00;90.00
18101;DHT22;9177;49.156;8.142;2023-06-14T10:30:03;26.00;90.00
18101;DHT22;9177;49.156;8.142;2023-06-14T10:32:32;26.00;89.90
18101;DHT22;9177;49.156;8.142;2023-06-14T10:35:00;26.00;89.90
18101;DHT22;9177;49.156;8.142;2023-06-14T10:37:28;26.00;89.80
18101;DHT22;9177;49.156;8.142;2023-06-14T10:39:55;26.00;89.90
18101;DHT22;9177;49.156;8.142;2023-06-14T10:42:28;26.00;89.80
18101;DHT22;9177;49.156;8.142;2023-06-14T10:44:58;26.10;89.90
18101;DHT22;9177;49.156;8.142;2023-06-14T10:47:30;26.10;89.80
18101;DHT22;9177;49.156;8.142;2023-06-14T10:50:03;26.10;89.80
18101;DHT22;9177;49.156;8.142;2023-06-14T10:52:34;26.10;89.80
18101;DHT22;9177;49.156;8.142;2023-06-14T10:55:10;26.10;89.80
18101;DHT22;9177;49.156;8.142;2023-06-14T10:57:41;26.10;89.80
18101;DHT22;9177;49.156;8.142;2023-06-14T11:00:10;26.10;89.80
18101;DHT22;9177;49.156;8.142;2023-06-14T11:05:58;26.10;89.70
18101;DHT22;9177;49.156;8.142;2023-06-14T11:11:38;26.10;89.80
18101;DHT22;9177;49.156;8.142;2023-06-14T11:14:10;26.10;89.80
18101;DHT22;9177;49.156;8.142;2023-06-14T11:16:37;26.10;89.70
18101;DHT22;9177;49.156;8.142;2023-06-14T11:19:04;26.10;89.80
18101;DHT22;9177;49.156;8.142;2023-06-14T11:21:32;26.10;89.90
18101;DHT22;9177;49.156;8.142;2023-06-14T11:24:00;26.10;89.90
18101;DHT22;9177;49.156;8.142;2023-06-14T11:26:27;26.10;90.00
18101;DHT22;9177;49.156;8.142;2023-06-14T11:28:55;26.10;90.00
18101;DHT22;9177;49.156;8.142;2023-06-14T11:31:25;26.10;90.00
18101;DHT22;9177;49.156;8.142;2023-06-14T11:33:54;26.10;90.00
18101;DHT22;9177;49.156;8.142;2023-06-14T11:36:22;26.10;90.00
18101;DHT22;9177;49.156;8.142;2023-06-14T11:38:49;26.20;90.10
18101;DHT22;9177;49.156;8.142;2023-06-14T11:41:17;26.20;90.10
18101;DHT22;9177;49.156;8.142;2023-06-14T11:43:44;26.20;90.10
18101;DHT22;9177;49.156;8.142;2023-06-14T11:46:14;26.20;90.10
18101;DHT22;9177;49.156;8.142;2023-06-14T11:48:44;26.30;90.10
18101;DHT22;9177;49.156;8.142;2023-06-14T11:51:12;26.30;90.10
18101;DHT22;9177;49.156;8.142;2023-06-14T11:53:39;26.30;90.00
18101;DHT22;9177;49.156;8.142;2023-06-14T11:56:07;26.40;90.00
18101;DHT22;9177;49.156;8.142;2023-06-14T11:58:34;26.40;90.00
18101;DHT22;9177;49.156;8.142;2023-06-14T12:01:03;26.40;90.00
18101;DHT22;9177;49.156;8.142;2023-06-14T12:03:30;26.40;90.10
18101;DHT22;9177;49.156;8.142;2023-06-14T12:06:07;26.40;90.10
18101;DHT22;9177;49.156;8.142;2023-06-14T12:08:35;26.50;90.10
18101;DHT22;9177;49.156;8.142;2023-06-14T12:11:05;26.50;90.10
18101;DHT22;9177;49.156;8.142;2023-06-14T12:13:37;26.50;90.00
18101;DHT22;9177;49.156;8.142;2023-06-14T12:16:04;26.50;90.10
18101;DHT22;9177;49.156;8.142;2023-06-14T12:18:33;26.50;90.10
18101;DHT22;9177;49.156;8.142;2023-06-14T12:21:01;26.50;90.10
18101;DHT22;9177;49.156;8.142;2023-06-14T12:23:42;26.50;90.10
18101;DHT22;9177;49.156;8.142;2023-06-14T12:26:11;26.50;90.10
18101;DHT22;9177;49.156;8.142;2023-06-14T12:28:40;26.50;90.10
18101;DHT22;9177;49.156;8.142;2023-06-14T12:31:08;26.60;90.10
18101;DHT22;9177;49.156;8.142;2023-06-14T12:33:35;26.60;90.10
18101;DHT22;9177;49.156;8.142;2023-06-14T12:36:04;26.70;90.10
18101;DHT22;9177;49.156;8.142;2023-06-14T12:38:32;26.70;90.00
18101;DHT22;9177;49.156;8.142;2023-06-14T12:41:01;26.80;90.00
18101;DHT22;9177;49.156;8.142;2023-06-14T12:43:28;26.80;90.00
18101;DHT22;9177;49.156;8.142;2023-06-14T12:45:55;26.80;90.00
18101;DHT22;9177;49.156;8.142;2023-06-14T12:48:22;26.80;90.00
18101;DHT22;9177;49.156;8.142;2023-06-14T12:50:49;26.80;90.00
18101;DHT22;9177;49.156;8.142;2023-06-14T12:53:17;26.80;90.00
18101;DHT22;9177;49.156;8.142;2023-06-14T12:55:44;26.80;90.00
18101;DHT22;9177;49.156;8.142;2023-06-14T12:58:13;26.90;90.00
18101;DHT22;9177;49.156;8.142;2023-06-14T13:00:40;26.90;90.00
18101;DHT22;9177;49.156;8.142;2023-06-14T13:03:07;26.90;89.90
18101;DHT22;9177;49.156;8.142;2023-06-14T13:05:35;26.90;89.90
18101;DHT22;9177;49.156;8.142;2023-06-14T13:08:03;27.00;89.90
18101;DHT22;9177;49.156;8.142;2023-06-14T13:10:30;27.00;89.90
18101;DHT22;9177;49.156;8.142;2023-06-14T13:12:57;27.00;89.90
18101;DHT22;9177;49.156;8.142;2023-06-14T13:15:27;27.10;89.70
18101;DHT22;9177;49.156;8.142;2023-06-14T13:17:54;27.10;89.50
18101;DHT22;9177;49.156;8.142;2023-06-14T13:20:21;27.10;89.50
18101;DHT22;9177;49.156;8.142;2023-06-14T13:22:48;27.20;89.60
18101;DHT22;9177;49.156;8.142;2023-06-14T13:25:18;27.20;89.50
18101;DHT22;9177;49.156;8.142;2023-06-14T13:27:45;27.30;89.60
18101;DHT22;9177;49.156;8.142;2023-06-14T13:30:13;27.30;89.50
18101;DHT22;9177;49.156;8.142;2023-06-14T13:32:41;27.30;89.50
18101;DHT22;9177;49.156;8.142;2023-06-14T13:35:09;27.30;89.40
18101;DHT22;9177;49.156;8.142;2023-06-14T13:37:36;27.30;89.40
18101;DHT22;9177;49.156;8.142;2023-06-14T13:40:03;27.30;89.30
18101;DHT22;9177;49.156;8.142;2023-06-14T13:42:31;27.40;89.40
18101;DHT22;9177;49.156;8.142;2023-06-14T13:44:59;27.40;90.00
18101;DHT22;9177;49.156;8.142;2023-06-14T13:47:26;27.40;89.20
18101;DHT22;9177;49.156;8.142;2023-06-14T13:49:55;27.40;89.20
18101;DHT22;9177;49.156;8.142;2023-06-14T13:52:22;27.40;89.20
18101;DHT22;9177;49.156;8.142;2023-06-14T13:54:49;27.40;89.20
18101;DHT22;9177;49.156;8.142;2023-06-14T13:57:17;27.50;89.40
18101;DHT22;9177;49.156;8.142;2023-06-14T13:59:44;27.50;89.40
18101;DHT22;9177;49.156;8.142;2023-06-14T14:02:12;27.50;89.40
18101;DHT22;9177;49.156;8.142;2023-06-14T14:04:40;27.50;89.40
18101;DHT22;9177;49.156;8.142;2023-06-14T14:07:09;27.50;89.40
18101;DHT22;9177;49.156;8.142;2023-06-14T14:09:36;27.50;89.40
18101;DHT22;9177;49.156;8.142;2023-06-14T14:12:05;27.40;89.40
18101;DHT22;9177;49.156;8.142;2023-06-14T14:14:33;27.30;89.70
18101;DHT22;9177;49.156;8.142;2023-06-14T14:17:01;27.30;90.10
18101;DHT22;9177;49.156;8.142;2023-06-14T14:19:28;27.30;90.10
18101;DHT22;9177;49.156;8.142;2023-06-14T14:21:55;27.30;90.20
18101;DHT22;9177;49.156;8.142;2023-06-14T14:24:27;27.30;90.20
18101;DHT22;9177;49.156;8.142;2023-06-14T14:26:54;27.30;90.30
18101;DHT22;9177;49.156;8.142;2023-06-14T14:29:25;27.30;90.30
18101;DHT22;9177;49.156;8.142;2023-06-14T14:31:55;27.20;90.30
18101;DHT22;9177;49.156;8.142;2023-06-14T14:34:22;27.30;90.40
18101;DHT22;9177;49.156;8.142;2023-06-14T14:36:49;27.30;90.80
18101;DHT22;9177;49.156;8.142;2023-06-14T14:39:18;27.20;90.30
18101;DHT22;9177;49.156;8.142;2023-06-14T14:41:47;27.20;90.40
18101;DHT22;9177;49.156;8.142;2023-06-14T14:44:14;27.10;90.40
18101;DHT22;9177;49.156;8.142;2023-06-14T14:46:41;27.00;90.60
18101;DHT22;9177;49.156;8.142;2023-06-14T14:49:10;27.00;90.60
18101;DHT22;9177;49.156;8.142;2023-06-14T14:51:37;27.00;90.50
18101;DHT22;9177;49.156;8.142;2023-06-14T14:54:05;27.00;90.40
18101;DHT22;9177;49.156;8.142;2023-06-14T14:56:33;27.00;90.40
18101;DHT22;9177;49.156;8.142;2023-06-14T14:59:02;27.10;90.40
18101;DHT22;9177;49.156;8.142;2023-06-14T15:01:29;27.10;90.40
18101;DHT22;9177;49.156;8.142;2023-06-14T15:03:57;27.10;90.40
18101;DHT22;9177;49.156;8.142;2023-06-14T15:06:24;27.10;90.50
18101;DHT22;9177;49.156;8.142;2023-06-14T15:08:51;27.10;90.50
18101;DHT22;9177;49.156;8.142;2023-06-14T15:11:18;27.10;90.50
18101;DHT22;9177;49.156;8.142;2023-06-14T15:13:46;27.10;90.40
18101;DHT22;9177;49.156;8.142;2023-06-14T15:16:16;27.10;90.80
18101;DHT22;9177;49.156;8.142;2023-06-14T15:18:43;27.10;90.40
18101;DHT22;9177;49.156;8.142;2023-06-14T15:21:10;27.10;90.40
18101;DHT22;9177;49.156;8.142;2023-06-14T15:23:37;27.10;90.40
18101;DHT22;9177;49.156;8.142;2023-06-14T15:26:04;27.10;90.40
18101;DHT22;9177;49.156;8.142;2023-06-14T15:28:32;27.00;90.50
18101;DHT22;9177;49.156;8.142;2023-06-14T15:30:59;27.00;90.50
18101;DHT22;9177;49.156;8.142;2023-06-14T15:33:28;27.10;90.50
18101;DHT22;9177;49.156;8.142;2023-06-14T15:35:55;27.10;90.50
18101;DHT22;9177;49.156;8.142;2023-06-14T15:38:22;27.10;90.80
18101;DHT22;9177;49.156;8.142;2023-06-14T15:40:49;27.10;90.40
18101;DHT22;9177;49.156;8.142;2023-06-14T15:43:16;27.10;90.40
18101;DHT22;9177;49.156;8.142;2023-06-14T15:45:44;27.10;90.30
18101;DHT22;9177;49.156;8.142;2023-06-14T15:48:11;27.10;90.30
18101;DHT22;9177;49.156;8.142;2023-06-14T15:50:40;27.10;90.20
18101;DHT22;9177;49.156;8.142;2023-06-14T15:53:07;27.10;90.20
18101;DHT22;9177;49.156;8.142;2023-06-14T15:55:34;27.10;90.20
18101;DHT22;9177;49.156;8.142;2023-06-14T15:58:02;27.00;90.20